sensor_id;sensor_type;location;lat;lon;timestamp;P1;durP1;ratioP1;P2;durP2;ratioP2
21258;SDS011;10787;53.364;-1.480;2024-02-28T00:00:21;30.00;;;6.87;;
21258;SDS011;10787;53.364;-1.480;2024-02-28T00:03:05;30.80;;;7.73;;
21258;SDS011;10787;53.364;-1.480;2024-02-28T00:05:49;31.47;;;7.23;;
21258;SDS011;10787;53.364;-1.480;2024-02-28T00:08:34;31.43;;;7.30;;
21258;SDS011;10787;53.364;-1.480;2024-02-28T00:11:19;31.43;;;7.43;;
21258;SDS011;10787;53.364;-1.480;2024-02-28T00:14:03;27.13;;;7.43;;
21258;SDS011;10787;53.364;-1.480;2024-02-28T00:16:48;30.90;;;7.90;;
21258;SDS011;10787;53.364;-1.480;2024-02-28T00:19:32;32.83;;;7.93;;
21258;SDS011;10787;53.364;-1.480;2024-02-28T00:22:17;37.93;;;8.93;;
21258;SDS011;10787;53.364;-1.480;2024-02-28T00:25:02;34.37;;;8.30;;
21258;SDS011;10787;53.364;-1.480;2024-02-28T00:27:47;35.47;;;8.43;;
21258;SDS011;10787;53.364;-1.480;2024-02-28T00:30:32;40.47;;;8.40;;
21258;SDS011;10787;53.364;-1.480;2024-02-28T00:33:16;31.23;;;8.13;;
21258;SDS011;10787;53.364;-1.480;2024-02-28T00:36:01;36.90;;;8.93;;
21258;SDS011;10787;53.364;-1.480;2024-02-28T00:38:45;36.60;;;9.00;;
21258;SDS011;10787;53.364;-1.480;2024-02-28T00:41:29;35.20;;;8.03;;
21258;SDS011;10787;53.364;-1.480;2024-02-28T00:44:14;33.63;;;8.37;;
21258;SDS011;10787;53.364;-1.480;2024-02-28T00:46:58;33.37;;;7.90;;
21258;SDS011;10787;53.364;-1.480;2024-02-28T00:49:42;26.60;;;7.70;;
21258;SDS011;10787;53.364;-1.480;2024-02-28T00:52:27;36.27;;;7.43;;
21258;SDS011;10787;53.364;-1.480;2024-02-28T00:55:12;26.70;;;6.17;;
21258;SDS011;10787;53.364;-1.480;2024-02-28T00:57:56;32.87;;;6.20;;
21258;SDS011;10787;53.364;-1.480;2024-02-28T01:00:40;35.27;;;6.47;;
21258;SDS011;10787;53.364;-1.480;2024-02-28T01:03:24;26.73;;;6.17;;
21258;SDS011;10787;53.364;-1.480;2024-02-28T01:06:09;29.30;;;6.27;;
21258;SDS011;10787;53.364;-1.480;2024-02-28T01:08:53;29.87;;;6.13;;
21258;SDS011;10787;53.364;-1.480;2024-02-28T01:11:37;24.33;;;5.77;;
21258;SDS011;10787;53.364;-1.480;2024-02-28T01:14:21;21.00;;;5.80;;
21258;SDS011;10787;53.364;-1.480;2024-02-28T01:17:05;22.67;;;6.40;;
21258;SDS011;10787;53.364;-1.480;2024-02-28T01:19:49;28.30;;;6.77;;
21258;SDS011;10787;53.364;-1.480;2024-02-28T01:22:33;26.90;;;6.37;;
21258;SDS011;10787;53.364;-1.480;2024-02-28T01:25:17;31.03;;;6.43;;
21258;SDS011;10787;53.364;-1.480;2024-02-28T01:28:03;25.07;;;5.73;;
21258;SDS011;10787;53.364;-1.480;2024-02-28T01:30:48;36.07;;;6.47;;
21258;SDS011;10787;53.364;-1.480;2024-02-28T01:33:32;31.80;;;6.67;;
21258;SDS011;10787;53.364;-1.480;2024-02-28T01:36:17;27.20;;;6.43;;
21258;SDS011;10787;53.364;-1.480;2024-02-28T01:39:01;24.37;;;6.03;;
21258;SDS011;10787;53.364;-1.480;2024-02-28T01:41:50;26.77;;;6.13;;
21258;SDS011;10787;53.364;-1.480;2024-02-28T01:44:41;27.57;;;6.63;;
21258;SDS011;10787;53.364;-1.480;2024-02-28T01:47:29;23.80;;;5.93;;
21258;SDS011;10787;53.364;-1.480;2024-02-28T01:50:14;29.33;;;6.30;;
21258;SDS011;10787;53.364;-1.480;2024-02-28T01:52:58;33.43;;;6.83;;
21258;SDS011;10787;53.364;-1.480;2024-02-28T01:55:44;26.83;;;6.40;;
21258;SDS011;10787;53.364;-1.480;2024-02-28T01:58:29;28.40;;;6.13;;
21258;SDS011;10787;53.364;-1.480;2024-02-28T02:01:13;26.67;;;7.20;;
21258;SDS011;10787;53.364;-1.480;2024-02-28T02:03:58;30.07;;;6.37;;
21258;SDS011;10787;53.364;-1.480;2024-02-28T02:06:43;30.67;;;6.30;;
21258;SDS011;10787;53.364;-1.480;2024-02-28T02:09:29;31.33;;;7.40;;
21258;SDS011;10787;53.364;-1.480;2024-02-28T02:12:13;27.93;;;6.00;;
21258;SDS011;10787;53.364;-1.480;2024-02-28T02:14:58;25.83;;;6.57;;
21258;SDS011;10787;53.364;-1.480;2024-02-28T02:17:43;29.37;;;6.43;;
21258;SDS011;10787;53.364;-1.480;2024-02-28T02:20:28;28.13;;;7.03;;
21258;SDS011;10787;53.364;-1.480;2024-02-28T02:23:16;28.10;;;7.27;;
21258;SDS011;10787;53.364;-1.480;2024-02-28T02:26:00;27.50;;;6.43;;
21258;SDS011;10787;53.364;-1.480;2024-02-28T02:28:44;26.90;;;6.70;;
21258;SDS011;10787;53.364;-1.480;2024-02-28T02:31:29;27.53;;;6.47;;
21258;SDS011;10787;53.364;-1.480;2024-02-28T02:34:14;28.30;;;6.67;;
21258;SDS011;10787;53.364;-1.480;2024-02-28T02:36:59;29.57;;;7.10;;
21258;SDS011;10787;53.364;-1.480;2024-02-28T02:39:43;32.53;;;7.13;;
21258;SDS011;10787;53.364;-1.480;2024-02-28T02:42:28;32.27;;;6.87;;
21258;SDS011;10787;53.364;-1.480;2024-02-28T02:45:12;27.77;;;7.20;;
21258;SDS011;10787;53.364;-1.480;2024-02-28T02:47:56;27.10;;;7.60;;
21258;SDS011;10787;53.364;-1.480;2024-02-28T02:50:41;30.33;;;7.23;;
21258;SDS011;10787;53.364;-1.480;2024-02-28T02:53:25;27.17;;;7.30;;
21258;SDS011;10787;53.364;-1.480;2024-02-28T02:56:09;26.30;;;7.17;;
21258;SDS011;10787;53.364;-1.480;2024-02-28T02:58:54;31.97;;;8.03;;
21258;SDS011;10787;53.364;-1.480;2024-02-28T03:01:38;31.77;;;7.57;;
21258;SDS011;10787;53.364;-1.480;2024-02-28T03:04:23;32.30;;;8.70;;
21258;SDS011;10787;53.364;-1.480;2024-02-28T03:07:07;32.93;;;8.20;;
21258;SDS011;10787;53.364;-1.480;2024-02-28T03:09:52;32.97;;;8.33;;
21258;SDS011;10787;53.364;-1.480;2024-02-28T03:12:36;29.97;;;7.97;;
21258;SDS011;10787;53.364;-1.480;2024-02-28T03:15:20;29.63;;;7.60;;
21258;SDS011;10787;53.364;-1.480;2024-02-28T03:18:05;28.53;;;7.77;;
21258;SDS011;10787;53.364;-1.480;2024-02-28T03:20:49;29.83;;;7.97;;
21258;SDS011;10787;53.364;-1.480;2024-02-28T03:23:34;31.67;;;7.93;;
21258;SDS011;10787;53.364;-1.480;2024-02-28T03:26:19;37.20;;;8.60;;
21258;SDS011;10787;53.364;-1.480;2024-02-28T03:29:04;34.23;;;8.13;;
21258;SDS011;10787;53.364;-1.480;2024-02-28T03:31:48;28.17;;;7.63;;
21258;SDS011;10787;53.364;-1.480;2024-02-28T03:34:33;31.60;;;8.07;;
21258;SDS011;10787;53.364;-1.480;2024-02-28T03:37:18;36.33;;;10.57;;
21258;SDS011;10787;53.364;-1.480;2024-02-28T03:40:02;27.07;;;7.70;;
21258;SDS011;10787;53.364;-1.480;2024-02-28T03:42:47;30.73;;;8.43;;
21258;SDS011;10787;53.364;-1.480;2024-02-28T03:45:36;25.47;;;7.90;;
21258;SDS011;10787;53.364;-1.480;2024-02-28T03:48:21;33.53;;;8.20;;
21258;SDS011;10787;53.364;-1.480;2024-02-28T03:51:06;32.93;;;8.10;;
21258;SDS011;10787;53.364;-1.480;2024-02-28T03:53:50;32.53;;;8.37;;
21258;SDS011;10787;53.364;-1.480;2024-02-28T03:56:34;25.67;;;8.10;;
21258;SDS011;10787;53.364;-1.480;2024-02-28T03:59:19;28.13;;;8.30;;
21258;SDS011;10787;53.364;-1.480;2024-02-28T04:02:03;30.83;;;8.23;;
21258;SDS011;10787;53.364;-1.480;2024-02-28T04:04:47;28.80;;;8.10;;
21258;SDS011;10787;53.364;-1.480;2024-02-28T04:07:32;28.00;;;8.53;;
21258;SDS011;10787;53.364;-1.480;2024-02-28T04:10:17;36.67;;;8.27;;
21258;SDS011;10787;53.364;-1.480;2024-02-28T04:13:01;30.33;;;8.43;;
21258;SDS011;10787;53.364;-1.480;2024-02-28T04:15:46;28.27;;;7.73;;
21258;SDS011;10787;53.364;-1.480;2024-02-28T04:18:30;32.13;;;8.30;;
21258;SDS011;10787;53.364;-1.480;2024-02-28T04:21:15;33.60;;;7.90;;
21258;SDS011;10787;53.364;-1.480;2024-02-28T04:23:59;30.43;;;8.20;;
21258;SDS011;10787;53.364;-1.480;2024-02-28T04:26:43;26.67;;;7.53;;
21258;SDS011;10787;53.364;-1.480;2024-02-28T04:29:28;27.13;;;7.67;;
21258;SDS011;10787;53.364;-1.480;2024-02-28T04:32:12;27.77;;;7.03;;
21258;SDS011;10787;53.364;-1.480;2024-02-28T04:34:56;28.67;;;7.90;;
21258;SDS011;10787;53.364;-1.480;2024-02-28T04:37:40;29.87;;;7.30;;
21258;SDS011;10787;53.364;-1.480;2024-02-28T04:40:25;30.00;;;8.03;;
21258;SDS011;10787;53.364;-1.480;2024-02-28T04:43:09;22.50;;;7.07;;
21258;SDS011;10787;53.364;-1.480;2024-02-28T04:45:54;35.00;;;7.90;;
21258;SDS011;10787;53.364;-1.480;2024-02-28T04:48:38;22.87;;;6.83;;
21258;SDS011;10787;53.364;-1.480;2024-02-28T04:51:23;28.93;;;7.37;;
21258;SDS011;10787;53.364;-1.480;2024-02-28T04:54:07;29.93;;;7.67;;
21258;SDS011;10787;53.364;-1.480;2024-02-28T04:56:51;21.43;;;6.33;;
21258;SDS011;10787;53.364;-1.480;2024-02-28T04:59:36;34.90;;;7.50;;
21258;SDS011;10787;53.364;-1.480;2024-02-28T05:02:20;26.03;;;6.10;;
21258;SDS011;10787;53.364;-1.480;2024-02-28T05:05:09;28.90;;;6.63;;
21258;SDS011;10787;53.364;-1.480;2024-02-28T05:07:53;27.70;;;6.27;;
21258;SDS011;10787;53.364;-1.480;2024-02-28T05:10:37;34.87;;;6.30;;
21258;SDS011;10787;53.364;-1.480;2024-02-28T05:13:22;19.07;;;5.30;;
21258;SDS011;10787;53.364;-1.480;2024-02-28T05:16:14;22.57;;;5.63;;
21258;SDS011;10787;53.364;-1.480;2024-02-28T05:18:59;19.97;;;5.50;;
21258;SDS011;10787;53.364;-1.480;2024-02-28T05:21:43;30.33;;;6.33;;
21258;SDS011;10787;53.364;-1.480;2024-02-28T05:24:28;21.83;;;4.83;;
21258;SDS011;10787;53.364;-1.480;2024-02-28T05:27:13;22.80;;;4.93;;
21258;SDS011;10787;53.364;-1.480;2024-02-28T05:29:57;22.10;;;5.90;;
21258;SDS011;10787;53.364;-1.480;2024-02-28T05:32:42;22.90;;;5.37;;
21258;SDS011;10787;53.364;-1.480;2024-02-28T05:35:26;22.57;;;5.17;;
21258;SDS011;10787;53.364;-1.480;2024-02-28T05:38:11;22.67;;;5.03;;
21258;SDS011;10787;53.364;-1.480;2024-02-28T05:40:55;21.37;;;4.87;;
21258;SDS011;10787;53.364;-1.480;2024-02-28T05:43:40;24.20;;;5.00;;
21258;SDS011;10787;53.364;-1.480;2024-02-28T05:46:24;23.83;;;5.20;;
21258;SDS011;10787;53.364;-1.480;2024-02-28T05:49:09;23.40;;;4.70;;
21258;SDS011;10787;53.364;-1.480;2024-02-28T05:51:53;19.67;;;4.90;;
21258;SDS011;10787;53.364;-1.480;2024-02-28T05:54:38;21.87;;;5.00;;
21258;SDS011;10787;53.364;-1.480;2024-02-28T05:57:23;16.80;;;4.60;;
21258;SDS011;10787;53.364;-1.480;2024-02-28T06:00:08;22.87;;;5.33;;
21258;SDS011;10787;53.364;-1.480;2024-02-28T06:02:56;24.47;;;5.63;;
21258;SDS011;10787;53.364;-1.480;2024-02-28T06:05:40;24.50;;;5.43;;
21258;SDS011;10787;53.364;-1.480;2024-02-28T06:08:24;23.03;;;5.47;;
21258;SDS011;10787;53.364;-1.480;2024-02-28T06:11:08;23.10;;;5.23;;
21258;SDS011;10787;53.364;-1.480;2024-02-28T06:13:53;25.10;;;5.20;;
21258;SDS011;10787;53.364;-1.480;2024-02-28T06:16:38;24.20;;;5.30;;
21258;SDS011;10787;53.364;-1.480;2024-02-28T06:19:23;20.97;;;5.20;;
21258;SDS011;10787;53.364;-1.480;2024-02-28T06:22:07;24.07;;;5.23;;
21258;SDS011;10787;53.364;-1.480;2024-02-28T06:24:51;22.93;;;5.70;;
21258;SDS011;10787;53.364;-1.480;2024-02-28T06:27:35;22.23;;;5.63;;
21258;SDS011;10787;53.364;-1.480;2024-02-28T06:30:19;19.00;;;4.83;;
21258;SDS011;10787;53.364;-1.480;2024-02-28T06:33:04;25.13;;;5.83;;
21258;SDS011;10787;53.364;-1.480;2024-02-28T06:35:48;26.17;;;5.70;;
21258;SDS011;10787;53.364;-1.480;2024-02-28T06:38:32;23.57;;;5.53;;
21258;SDS011;10787;53.364;-1.480;2024-02-28T06:41:18;23.67;;;5.70;;
21258;SDS011;10787;53.364;-1.480;2024-02-28T06:44:02;24.90;;;5.53;;
21258;SDS011;10787;53.364;-1.480;2024-02-28T06:46:47;22.93;;;5.60;;
21258;SDS011;10787;53.364;-1.480;2024-02-28T06:49:31;28.63;;;5.50;;
21258;SDS011;10787;53.364;-1.480;2024-02-28T06:52:16;24.27;;;5.40;;
21258;SDS011;10787;53.364;-1.480;2024-02-28T06:55:00;24.17;;;5.07;;
21258;SDS011;10787;53.364;-1.480;2024-02-28T06:57:47;24.90;;;5.30;;
21258;SDS011;10787;53.364;-1.480;2024-02-28T07:00:31;21.17;;;5.37;;
21258;SDS011;10787;53.364;-1.480;2024-02-28T07:03:16;21.10;;;4.53;;
21258;SDS011;10787;53.364;-1.480;2024-02-28T07:06:00;19.23;;;4.67;;
21258;SDS011;10787;53.364;-1.480;2024-02-28T07:08:45;25.20;;;4.70;;
21258;SDS011;10787;53.364;-1.480;2024-02-28T07:11:29;17.40;;;4.17;;
21258;SDS011;10787;53.364;-1.480;2024-02-28T07:14:14;20.07;;;4.70;;
21258;SDS011;10787;53.364;-1.480;2024-02-28T07:16:58;20.87;;;5.20;;
21258;SDS011;10787;53.364;-1.480;2024-02-28T07:19:42;19.10;;;4.87;;
21258;SDS011;10787;53.364;-1.480;2024-02-28T07:22:26;22.90;;;5.20;;
21258;SDS011;10787;53.364;-1.480;2024-02-28T07:25:10;19.90;;;5.00;;
21258;SDS011;10787;53.364;-1.480;2024-02-28T07:27:56;18.20;;;5.10;;
21258;SDS011;10787;53.364;-1.480;2024-02-28T07:30:42;27.37;;;5.50;;
21258;SDS011;10787;53.364;-1.480;2024-02-28T07:33:28;19.50;;;4.67;;
21258;SDS011;10787;53.364;-1.480;2024-02-28T07:36:12;19.57;;;4.60;;
21258;SDS011;10787;53.364;-1.480;2024-02-28T07:38:57;20.30;;;5.67;;
21258;SDS011;10787;53.364;-1.480;2024-02-28T07:41:41;20.10;;;5.37;;
21258;SDS011;10787;53.364;-1.480;2024-02-28T07:44:26;19.00;;;4.80;;
21258;SDS011;10787;53.364;-1.480;2024-02-28T07:47:13;20.47;;;4.70;;
21258;SDS011;10787;53.364;-1.480;2024-02-28T07:49:58;22.20;;;4.90;;
21258;SDS011;10787;53.364;-1.480;2024-02-28T07:52:42;21.97;;;5.93;;
21258;SDS011;10787;53.364;-1.480;2024-02-28T07:55:27;25.07;;;5.87;;
21258;SDS011;10787;53.364;-1.480;2024-02-28T07:58:11;21.70;;;5.60;;
21258;SDS011;10787;53.364;-1.480;2024-02-28T08:00:55;18.10;;;5.17;;
21258;SDS011;10787;53.364;-1.480;2024-02-28T08:03:39;20.07;;;5.17;;
21258;SDS011;10787;53.364;-1.480;2024-02-28T08:06:24;22.23;;;5.10;;
21258;SDS011;10787;53.364;-1.480;2024-02-28T08:09:09;20.70;;;5.03;;
21258;SDS011;10787;53.364;-1.480;2024-02-28T08:11:53;19.70;;;4.67;;
21258;SDS011;10787;53.364;-1.480;2024-02-28T08:14:38;18.03;;;4.57;;
21258;SDS011;10787;53.364;-1.480;2024-02-28T08:17:22;20.67;;;4.50;;
21258;SDS011;10787;53.364;-1.480;2024-02-28T08:20:07;19.87;;;4.60;;
21258;SDS011;10787;53.364;-1.480;2024-02-28T08:22:52;19.33;;;4.30;;
21258;SDS011;10787;53.364;-1.480;2024-02-28T08:25:40;20.47;;;4.50;;
21258;SDS011;10787;53.364;-1.480;2024-02-28T08:28:24;22.33;;;4.83;;
21258;SDS011;10787;53.364;-1.480;2024-02-28T08:31:09;18.60;;;5.10;;
21258;SDS011;10787;53.364;-1.480;2024-02-28T08:33:53;18.03;;;4.37;;
21258;SDS011;10787;53.364;-1.480;2024-02-28T08:36:39;21.50;;;5.00;;
21258;SDS011;10787;53.364;-1.480;2024-02-28T08:39:23;20.03;;;4.80;;
21258;SDS011;10787;53.364;-1.480;2024-02-28T08:42:07;16.20;;;4.77;;
21258;SDS011;10787;53.364;-1.480;2024-02-28T08:44:55;19.53;;;4.60;;
21258;SDS011;10787;53.364;-1.480;2024-02-28T08:47:40;19.43;;;5.37;;
21258;SDS011;10787;53.364;-1.480;2024-02-28T08:50:25;14.03;;;4.33;;
21258;SDS011;10787;53.364;-1.480;2024-02-28T08:53:08;20.57;;;4.73;;
21258;SDS011;10787;53.364;-1.480;2024-02-28T08:55:52;18.90;;;4.93;;
21258;SDS011;10787;53.364;-1.480;2024-02-28T08:58:36;18.57;;;5.40;;
21258;SDS011;10787;53.364;-1.480;2024-02-28T09:01:21;24.30;;;6.07;;
21258;SDS011;10787;53.364;-1.480;2024-02-28T09:04:05;23.00;;;5.43;;
21258;SDS011;10787;53.364;-1.480;2024-02-28T09:06:49;20.50;;;5.60;;
21258;SDS011;10787;53.364;-1.480;2024-02-28T09:09:34;22.63;;;5.60;;
21258;SDS011;10787;53.364;-1.480;2024-02-28T09:12:21;21.83;;;5.30;;
21258;SDS011;10787;53.364;-1.480;2024-02-28T09:15:05;19.43;;;4.30;;
21258;SDS011;10787;53.364;-1.480;2024-02-28T09:17:50;19.33;;;4.13;;
21258;SDS011;10787;53.364;-1.480;2024-02-28T09:20:34;21.13;;;4.70;;
21258;SDS011;10787;53.364;-1.480;2024-02-28T09:23:19;18.27;;;4.13;;
21258;SDS011;10787;53.364;-1.480;2024-02-28T09:26:04;15.60;;;4.67;;
21258;SDS011;10787;53.364;-1.480;2024-02-28T09:28:48;23.43;;;5.00;;
21258;SDS011;10787;53.364;-1.480;2024-02-28T09:31:33;17.93;;;4.37;;
21258;SDS011;10787;53.364;-1.480;2024-02-28T09:34:17;19.70;;;4.30;;
21258;SDS011;10787;53.364;-1.480;2024-02-28T09:37:01;18.77;;;4.40;;
21258;SDS011;10787;53.364;-1.480;2024-02-28T09:39:45;23.17;;;4.43;;
21258;SDS011;10787;53.364;-1.480;2024-02-28T09:42:29;21.00;;;4.67;;
21258;SDS011;10787;53.364;-1.480;2024-02-28T09:45:13;20.67;;;4.87;;
21258;SDS011;10787;53.364;-1.480;2024-02-28T09:47:59;21.57;;;4.83;;
21258;SDS011;10787;53.364;-1.480;2024-02-28T09:50:45;19.17;;;4.40;;
21258;SDS011;10787;53.364;-1.480;2024-02-28T09:53:29;19.73;;;4.57;;
21258;SDS011;10787;53.364;-1.480;2024-02-28T09:56:15;18.50;;;4.37;;
21258;SDS011;10787;53.364;-1.480;2024-02-28T09:59:00;20.70;;;4.53;;
21258;SDS011;10787;53.364;-1.480;2024-02-28T10:01:47;18.43;;;4.33;;
21258;SDS011;10787;53.364;-1.480;2024-02-28T10:04:39;23.07;;;5.00;;
21258;SDS011;10787;53.364;-1.480;2024-02-28T10:07:24;22.83;;;5.27;;
21258;SDS011;10787;53.364;-1.480;2024-02-28T10:10:08;20.87;;;5.17;;
21258;SDS011;10787;53.364;-1.480;2024-02-28T10:12:52;16.43;;;4.47;;
21258;SDS011;10787;53.364;-1.480;2024-02-28T10:15:37;19.27;;;5.00;;
21258;SDS011;10787;53.364;-1.480;2024-02-28T10:18:21;22.20;;;4.60;;
21258;SDS011;10787;53.364;-1.480;2024-02-28T10:21:05;19.03;;;4.80;;
21258;SDS011;10787;53.364;-1.480;2024-02-28T10:23:50;24.37;;;5.17;;
21258;SDS011;10787;53.364;-1.480;2024-02-28T10:26:41;24.13;;;5.53;;
21258;SDS011;10787;53.364;-1.480;2024-02-28T10:29:31;21.77;;;5.07;;
21258;SDS011;10787;53.364;-1.480;2024-02-28T10:32:18;17.57;;;4.70;;
21258;SDS011;10787;53.364;-1.480;2024-02-28T10:35:03;24.83;;;5.13;;
21258;SDS011;10787;53.364;-1.480;2024-02-28T10:37:50;16.63;;;4.90;;
21258;SDS011;10787;53.364;-1.480;2024-02-28T10:40:38;16.90;;;4.43;;
21258;SDS011;10787;53.364;-1.480;2024-02-28T10:43:24;19.30;;;4.10;;
21258;SDS011;10787;53.364;-1.480;2024-02-28T10:46:13;18.47;;;3.90;;
21258;SDS011;10787;53.364;-1.480;2024-02-28T10:48:58;17.20;;;4.13;;
21258;SDS011;10787;53.364;-1.480;2024-02-28T10:51:43;22.00;;;4.60;;
21258;SDS011;10787;53.364;-1.480;2024-02-28T10:54:30;23.03;;;5.33;;
21258;SDS011;10787;53.364;-1.480;2024-02-28T10:57:16;17.10;;;4.47;;
21258;SDS011;10787;53.364;-1.480;2024-02-28T11:00:02;17.43;;;4.53;;
21258;SDS011;10787;53.364;-1.480;2024-02-28T11:02:49;16.53;;;3.97;;
21258;SDS011;10787;53.364;-1.480;2024-02-28T11:05:36;18.13;;;4.67;;
21258;SDS011;10787;53.364;-1.480;2024-02-28T11:08:25;17.10;;;4.23;;
21258;SDS011;10787;53.364;-1.480;2024-02-28T11:11:13;17.93;;;4.53;;
21258;SDS011;10787;53.364;-1.480;2024-02-28T11:13:59;22.40;;;4.50;;
21258;SDS011;10787;53.364;-1.480;2024-02-28T11:16:44;21.73;;;4.67;;
21258;SDS011;10787;53.364;-1.480;2024-02-28T11:19:30;21.60;;;5.10;;
21258;SDS011;10787;53.364;-1.480;2024-02-28T11:22:17;18.97;;;4.90;;
21258;SDS011;10787;53.364;-1.480;2024-02-28T11:25:02;20.37;;;4.87;;
21258;SDS011;10787;53.364;-1.480;2024-02-28T11:27:48;20.10;;;5.13;;
21258;SDS011;10787;53.364;-1.480;2024-02-28T11:30:33;18.43;;;5.83;;
21258;SDS011;10787;53.364;-1.480;2024-02-28T11:33:17;14.93;;;4.77;;
21258;SDS011;10787;53.364;-1.480;2024-02-28T11:36:02;21.27;;;5.33;;
21258;SDS011;10787;53.364;-1.480;2024-02-28T11:38:46;18.63;;;5.33;;
21258;SDS011;10787;53.364;-1.480;2024-02-28T11:41:31;21.33;;;6.07;;
21258;SDS011;10787;53.364;-1.480;2024-02-28T11:44:16;20.57;;;5.40;;
21258;SDS011;10787;53.364;-1.480;2024-02-28T11:47:01;24.87;;;6.20;;
21258;SDS011;10787;53.364;-1.480;2024-02-28T11:49:46;21.80;;;6.37;;
21258;SDS011;10787;53.364;-1.480;2024-02-28T11:52:30;19.43;;;5.60;;
21258;SDS011;10787;53.364;-1.480;2024-02-28T11:55:14;20.13;;;6.10;;
21258;SDS011;10787;53.364;-1.480;2024-02-28T11:57:58;20.30;;;6.00;;
21258;SDS011;10787;53.364;-1.480;2024-02-28T12:00:48;17.83;;;5.57;;
21258;SDS011;10787;53.364;-1.480;2024-02-28T12:03:33;18.27;;;5.60;;
21258;SDS011;10787;53.364;-1.480;2024-02-28T12:06:19;22.97;;;5.80;;
21258;SDS011;10787;53.364;-1.480;2024-02-28T12:09:04;17.13;;;5.10;;
21258;SDS011;10787;53.364;-1.480;2024-02-28T12:11:55;21.83;;;5.43;;
21258;SDS011;10787;53.364;-1.480;2024-02-28T12:14:39;17.80;;;5.23;;
21258;SDS011;10787;53.364;-1.480;2024-02-28T12:17:24;19.30;;;5.60;;
21258;SDS011;10787;53.364;-1.480;2024-02-28T12:20:09;20.30;;;5.03;;
21258;SDS011;10787;53.364;-1.480;2024-02-28T12:22:54;15.53;;;4.50;;
21258;SDS011;10787;53.364;-1.480;2024-02-28T12:25:38;16.30;;;5.00;;
21258;SDS011;10787;53.364;-1.480;2024-02-28T12:28:23;17.37;;;4.97;;
21258;SDS011;10787;53.364;-1.480;2024-02-28T12:31:07;16.40;;;4.57;;
21258;SDS011;10787;53.364;-1.480;2024-02-28T12:33:54;17.07;;;5.10;;
21258;SDS011;10787;53.364;-1.480;2024-02-28T12:36:39;13.17;;;4.40;;
21258;SDS011;10787;53.364;-1.480;2024-02-28T12:39:24;12.87;;;4.37;;
21258;SDS011;10787;53.364;-1.480;2024-02-28T12:42:08;12.93;;;4.10;;
21258;SDS011;10787;53.364;-1.480;2024-02-28T12:44:53;14.50;;;5.00;;
21258;SDS011;10787;53.364;-1.480;2024-02-28T12:47:36;15.83;;;6.07;;
21258;SDS011;10787;53.364;-1.480;2024-02-28T12:50:22;13.30;;;4.60;;
21258;SDS011;10787;53.364;-1.480;2024-02-28T12:53:07;12.23;;;4.33;;
21258;SDS011;10787;53.364;-1.480;2024-02-28T12:55:51;15.73;;;4.67;;
21258;SDS011;10787;53.364;-1.480;2024-02-28T12:58:35;14.70;;;4.20;;
21258;SDS011;10787;53.364;-1.480;2024-02-28T13:01:19;11.20;;;3.43;;
21258;SDS011;10787;53.364;-1.480;2024-02-28T13:04:03;13.73;;;4.10;;
21258;SDS011;10787;53.364;-1.480;2024-02-28T13:06:48;11.38;;;4.00;;
21258;SDS011;10787;53.364;-1.480;2024-02-28T13:09:32;11.10;;;3.67;;
21258;SDS011;10787;53.364;-1.480;2024-02-28T13:12:16;12.05;;;3.90;;
21258;SDS011;10787;53.364;-1.480;2024-02-28T13:15:01;11.40;;;4.00;;
21258;SDS011;10787;53.364;-1.480;2024-02-28T13:17:47;14.88;;;4.03;;
21258;SDS011;10787;53.364;-1.480;2024-02-28T13:20:33;13.48;;;4.43;;
21258;SDS011;10787;53.364;-1.480;2024-02-28T13:23:18;9.30;;;4.03;;
21258;SDS011;10787;53.364;-1.480;2024-02-28T13:26:05;17.10;;;4.73;;
21258;SDS011;10787;53.364;-1.480;2024-02-28T13:28:50;12.10;;;4.40;;
21258;SDS011;10787;53.364;-1.480;2024-02-28T13:31:34;13.90;;;4.73;;
21258;SDS011;10787;53.364;-1.480;2024-02-28T13:34:19;11.40;;;4.30;;
21258;SDS011;10787;53.364;-1.480;2024-02-28T13:37:03;10.13;;;4.10;;
21258;SDS011;10787;53.364;-1.480;2024-02-28T13:39:47;14.13;;;4.33;;
21258;SDS011;10787;53.364;-1.480;2024-02-28T13:42:34;10.50;;;4.27;;
21258;SDS011;10787;53.364;-1.480;2024-02-28T13:45:19;9.70;;;3.80;;
21258;SDS011;10787;53.364;-1.480;2024-02-28T13:48:04;14.40;;;4.60;;
21258;SDS011;10787;53.364;-1.480;2024-02-28T13:50:49;14.47;;;4.40;;
21258;SDS011;10787;53.364;-1.480;2024-02-28T13:53:33;12.07;;;4.30;;
21258;SDS011;10787;53.364;-1.480;2024-02-28T13:56:17;12.40;;;4.50;;
21258;SDS011;10787;53.364;-1.480;2024-02-28T13:59:02;13.80;;;4.93;;
21258;SDS011;10787;53.364;-1.480;2024-02-28T14:01:46;14.73;;;5.43;;
21258;SDS011;10787;53.364;-1.480;2024-02-28T14:04:31;11.93;;;5.40;;
21258;SDS011;10787;53.364;-1.480;2024-02-28T14:07:15;14.97;;;5.83;;
21258;SDS011;10787;53.364;-1.480;2024-02-28T14:09:59;19.27;;;6.43;;
21258;SDS011;10787;53.364;-1.480;2024-02-28T14:12:44;14.90;;;6.80;;
21258;SDS011;10787;53.364;-1.480;2024-02-28T14:15:28;16.60;;;7.20;;
21258;SDS011;10787;53.364;-1.480;2024-02-28T14:18:12;13.80;;;6.97;;
21258;SDS011;10787;53.364;-1.480;2024-02-28T14:20:56;13.67;;;6.23;;
21258;SDS011;10787;53.364;-1.480;2024-02-28T14:23:41;15.00;;;6.30;;
21258;SDS011;10787;53.364;-1.480;2024-02-28T14:26:25;15.83;;;6.50;;
21258;SDS011;10787;53.364;-1.480;2024-02-28T14:29:10;13.77;;;5.30;;
21258;SDS011;10787;53.364;-1.480;2024-02-28T14:31:55;13.83;;;5.70;;
21258;SDS011;10787;53.364;-1.480;2024-02-28T14:34:39;15.40;;;5.50;;
21258;SDS011;10787;53.364;-1.480;2024-02-28T14:37:23;16.33;;;6.20;;
21258;SDS011;10787;53.364;-1.480;2024-02-28T14:40:07;14.10;;;5.53;;
21258;SDS011;10787;53.364;-1.480;2024-02-28T14:42:55;20.03;;;5.77;;
21258;SDS011;10787;53.364;-1.480;2024-02-28T14:45:40;15.17;;;5.67;;
21258;SDS011;10787;53.364;-1.480;2024-02-28T14:48:25;14.23;;;5.70;;
21258;SDS011;10787;53.364;-1.480;2024-02-28T14:51:09;13.47;;;5.80;;
21258;SDS011;10787;53.364;-1.480;2024-02-28T14:53:54;15.10;;;6.50;;
21258;SDS011;10787;53.364;-1.480;2024-02-28T14:56:38;13.00;;;5.60;;
21258;SDS011;10787;53.364;-1.480;2024-02-28T14:59:22;14.47;;;6.47;;
21258;SDS011;10787;53.364;-1.480;2024-02-28T15:02:07;15.40;;;6.53;;
21258;SDS011;10787;53.364;-1.480;2024-02-28T15:04:54;17.07;;;6.47;;
21258;SDS011;10787;53.364;-1.480;2024-02-28T15:07:38;16.23;;;6.33;;
21258;SDS011;10787;53.364;-1.480;2024-02-28T15:10:22;17.40;;;6.90;;
21258;SDS011;10787;53.364;-1.480;2024-02-28T15:13:06;16.87;;;6.53;;
21258;SDS011;10787;53.364;-1.480;2024-02-28T15:15:51;16.27;;;6.33;;
21258;SDS011;10787;53.364;-1.480;2024-02-28T15:18:35;14.73;;;6.20;;
21258;SDS011;10787;53.364;-1.480;2024-02-28T15:21:19;16.87;;;6.77;;
21258;SDS011;10787;53.364;-1.480;2024-02-28T15:24:04;15.23;;;6.77;;
21258;SDS011;10787;53.364;-1.480;2024-02-28T15:26:49;14.23;;;5.97;;
21258;SDS011;10787;53.364;-1.480;2024-02-28T15:29:35;11.60;;;6.40;;
21258;SDS011;10787;53.364;-1.480;2024-02-28T15:32:19;16.57;;;6.73;;
21258;SDS011;10787;53.364;-1.480;2024-02-28T15:35:04;14.83;;;6.33;;
21258;SDS011;10787;53.364;-1.480;2024-02-28T15:37:50;15.07;;;6.70;;
21258;SDS011;10787;53.364;-1.480;2024-02-28T15:40:35;15.37;;;6.37;;
21258;SDS011;10787;53.364;-1.480;2024-02-28T15:43:19;10.00;;;5.47;;
21258;SDS011;10787;53.364;-1.480;2024-02-28T15:46:04;15.37;;;6.43;;
21258;SDS011;10787;53.364;-1.480;2024-02-28T15:48:48;12.80;;;6.00;;
21258;SDS011;10787;53.364;-1.480;2024-02-28T15:51:33;13.10;;;5.77;;
21258;SDS011;10787;53.364;-1.480;2024-02-28T15:54:17;12.47;;;6.00;;
21258;SDS011;10787;53.364;-1.480;2024-02-28T15:57:01;12.20;;;5.83;;
21258;SDS011;10787;53.364;-1.480;2024-02-28T15:59:46;9.77;;;5.93;;
21258;SDS011;10787;53.364;-1.480;2024-02-28T16:02:30;12.53;;;5.93;;